• Join FlightAware (Why Join?)
  • Login
  • US Flag 
01:26PM EST


 

Airport Tracker/Info


-or-


 

Live Flight TrackerFlight Track Log ✈ WAV324 ✈ 17-Nov-2013 ✈ PAFA / FAI - PFYU

Flight Track Log - Related Links

Times and Time Zones

All times are in EST time to prevent confusion due to time zone crossing. See the WAV324 flight status page for this flight to view local times or setup timezone preferences in your user account.

Time Position Orientation Groundspeed Altitude Reporting Facility
EST Latitude Longitude Course Direction KTS MPH feet Rate Location/Type
07:06PM 65.0719 -147.5005 16° North  Level Estimated
07:07PM 65.1141 -147.4879 North  Level FlightAware Approximate
07:08PM 65.1563 -147.4752 North  Level FlightAware Approximate
07:09PM 65.1985 -147.4625 North  Level FlightAware Approximate
07:10PM 65.2407 -147.4498 North  Level FlightAware Approximate
07:11PM 65.2829 -147.4370 North  Level FlightAware Approximate
07:12PM 65.3251 -147.4242 North  Level FlightAware Approximate
07:13PM 65.3673 -147.4114 North  Level FlightAware Approximate
07:14PM 65.4095 -147.3985 North  Level FlightAware Approximate
07:15PM 65.4517 -147.3855 North  Level FlightAware Approximate
07:16PM 65.4939 -147.3726 North  Level FlightAware Approximate
07:17PM 65.5361 -147.3596 North  Level FlightAware Approximate
07:18PM 65.5783 -147.3465 North  Level FlightAware Approximate
07:19PM 65.6111 -147.2808 46° Northeast  Level Estimated
07:20PM 65.6459 -147.2218 35° Northeast  Level FlightAware Approximate
07:21PM 65.6808 -147.1626 35° Northeast  Level FlightAware Approximate
07:22PM 65.7156 -147.1032 35° Northeast  Level FlightAware Approximate
07:23PM 65.7504 -147.0437 35° Northeast  Level FlightAware Approximate
07:24PM 65.7852 -146.9840 35° Northeast  Level FlightAware Approximate
07:25PM 65.8199 -146.9241 35° Northeast  Level FlightAware Approximate
07:26PM 65.8547 -146.8642 35° Northeast  Level FlightAware Approximate
07:27PM 65.8894 -146.8040 35° Northeast  Level FlightAware Approximate
07:28PM 65.9241 -146.7437 35° Northeast  Level FlightAware Approximate
07:29PM 65.9587 -146.6832 35° Northeast  Level FlightAware Approximate
07:30PM 65.9934 -146.6225 35° Northeast  Level FlightAware Approximate
07:31PM 66.0280 -146.5617 36° Northeast  Level FlightAware Approximate
07:32PM 66.0626 -146.5007 36° Northeast  Level FlightAware Approximate
07:33PM 66.0931 -146.4277 55° Northeast  Level Estimated
07:34PM 66.1236 -146.3545 48° Northeast  Level Estimated
07:35PM 66.1555 -146.2848 41° Northeast  Level FlightAware Approximate
07:36PM 66.1873 -146.2150 42° Northeast  Level FlightAware Approximate
07:37PM 66.2175 -146.1407 48° Northeast  Level Estimated
07:38PM 66.2477 -146.0663 45° Northeast  Level FlightAware Approximate
07:39PM 66.2779 -145.9918 45° Northeast  Level FlightAware Approximate
07:40PM 66.3080 -145.9171 45° Northeast  Level FlightAware Approximate
07:41PM 66.3381 -145.8423 45° Northeast  Level FlightAware Approximate
07:42PM 66.3681 -145.7672 45° Northeast  Level FlightAware Approximate
07:43PM 66.3981 -145.6918 54° Northeast  Level Estimated
07:44PM 66.4270 -145.6138 47° Northeast  Level FlightAware Approximate
07:45PM 66.4570 -145.5384 54° Northeast  Level Estimated
07:46PM 66.4870 -145.4629 54° Northeast  Level Estimated
07:47PM 66.5170 -145.3871 54° Northeast  Level Estimated
07:48PM 66.5469 -145.3112 54° Northeast  Level Estimated
07:49PM 66.5667 -145.2333 54° Northeast  Level FlightAware Approximate
07:50PM 66.5724 -145.2463 54° Northeast  Level Estimated
07:51PM 66.5724 -145.2463 54° Northeast  Level Estimated
07:52PM 66.5724 -145.2463 54° Northeast  Level Estimated
07:53PM 66.5724 -145.2463 54° Northeast  Level Estimated
07:54PM 66.5724 -145.2463 54° Northeast  Level Estimated
07:55PM 66.5724 -145.2463 54° Northeast  Level Estimated
07:56PM 66.5724 -145.2463 54° Northeast  Level Estimated
07:57PM 66.5724 -145.2463 54° Northeast  Level Estimated
07:58PM 66.5724 -145.2463 54° Northeast  Level Estimated
07:59PM 66.5724 -145.2463 54° Northeast  Level Estimated
08:00PM 66.5724 -145.2463 54° Northeast  Level Estimated
08:01PM 66.5724 -145.2463 54° Northeast  Level Estimated
08:02PM 66.5724 -145.2463 54° Northeast  Level Estimated
08:03PM 66.5724 -145.2463 54° Northeast  Level Estimated
08:04PM 66.5724 -145.2463 54° Northeast  Level Estimated
08:05PM 66.5724 -145.2463 54° Northeast  Level Estimated
08:06PM 66.5724 -145.2463 54° Northeast  Level Estimated